sensor_id;sensor_type;location;lat;lon;timestamp;temperature;humidity
64652;HTU21D;51062;45.120;37.660;2023-09-07T00:00:16;17.62;65.70
64652;HTU21D;51062;45.120;37.660;2023-09-07T00:02:42;17.56;65.81
64652;HTU21D;51062;45.120;37.660;2023-09-07T00:05:09;17.53;65.90
64652;HTU21D;51062;45.120;37.660;2023-09-07T00:07:35;17.51;65.91
64652;HTU21D;51062;45.120;37.660;2023-09-07T00:10:02;17.48;65.98
64652;HTU21D;51062;45.120;37.660;2023-09-07T00:12:31;17.45;66.07
64652;HTU21D;51062;45.120;37.660;2023-09-07T00:14:58;17.41;66.12
64652;HTU21D;51062;45.120;37.660;2023-09-07T00:17:25;17.38;66.17
64652;HTU21D;51062;45.120;37.660;2023-09-07T00:19:51;17.34;66.24
64652;HTU21D;51062;45.120;37.660;2023-09-07T00:22:18;17.30;66.32
64652;HTU21D;51062;45.120;37.660;2023-09-07T00:24:44;17.25;66.36
64652;HTU21D;51062;45.120;37.660;2023-09-07T00:27:11;17.22;66.48
64652;HTU21D;51062;45.120;37.660;2023-09-07T00:29:38;17.17;66.58
64652;HTU21D;51062;45.120;37.660;2023-09-07T00:32:05;17.16;66.65
64652;HTU21D;51062;45.120;37.660;2023-09-07T00:34:31;17.11;66.73
64652;HTU21D;51062;45.120;37.660;2023-09-07T00:36:57;17.08;66.79
64652;HTU21D;51062;45.120;37.660;2023-09-07T00:39:24;17.06;66.85
64652;HTU21D;51062;45.120;37.660;2023-09-07T00:41:50;17.04;66.88
64652;HTU21D;51062;45.120;37.660;2023-09-07T00:44:16;17.03;66.90
64652;HTU21D;51062;45.120;37.660;2023-09-07T00:46:42;17.00;66.94
64652;HTU21D;51062;45.120;37.660;2023-09-07T00:49:14;16.96;66.99
64652;HTU21D;51062;45.120;37.660;2023-09-07T00:51:40;16.94;67.05
64652;HTU21D;51062;45.120;37.660;2023-09-07T00:54:06;16.91;67.10
64652;HTU21D;51062;45.120;37.660;2023-09-07T00:56:35;16.87;67.18
64652;HTU21D;51062;45.120;37.660;2023-09-07T00:59:02;16.86;67.21
64652;HTU21D;51062;45.120;37.660;2023-09-07T01:01:29;16.85;67.20
64652;HTU21D;51062;45.120;37.660;2023-09-07T01:03:57;16.84;67.22
64652;HTU21D;51062;45.120;37.660;2023-09-07T01:06:35;16.78;67.30
64652;HTU21D;51062;45.120;37.660;2023-09-07T01:09:17;16.74;67.36
64652;HTU21D;51062;45.120;37.660;2023-09-07T01:11:45;16.72;67.38
64652;HTU21D;51062;45.120;37.660;2023-09-07T01:14:11;16.72;67.43
64652;HTU21D;51062;45.120;37.660;2023-09-07T01:16:37;16.69;67.42
64652;HTU21D;51062;45.120;37.660;2023-09-07T01:19:07;16.69;67.44
64652;HTU21D;51062;45.120;37.660;2023-09-07T01:21:37;16.66;67.50
64652;HTU21D;51062;45.120;37.660;2023-09-07T01:24:07;16.64;67.52
64652;HTU21D;51062;45.120;37.660;2023-09-07T01:26:34;16.60;67.59
64652;HTU21D;51062;45.120;37.660;2023-09-07T01:29:01;16.56;67.64
64652;HTU21D;51062;45.120;37.660;2023-09-07T01:31:27;16.52;67.70
64652;HTU21D;51062;45.120;37.660;2023-09-07T01:33:54;16.46;67.81
64652;HTU21D;51062;45.120;37.660;2023-09-07T01:36:20;16.44;67.88
64652;HTU21D;51062;45.120;37.660;2023-09-07T01:38:46;16.43;67.94
64652;HTU21D;51062;45.120;37.660;2023-09-07T01:41:12;16.42;67.97
64652;HTU21D;51062;45.120;37.660;2023-09-07T01:43:39;16.40;67.98
64652;HTU21D;51062;45.120;37.660;2023-09-07T01:46:05;16.36;68.01
64652;HTU21D;51062;45.120;37.660;2023-09-07T01:48:31;16.35;68.06
64652;HTU21D;51062;45.120;37.660;2023-09-07T01:50:57;16.32;68.10
64652;HTU21D;51062;45.120;37.660;2023-09-07T01:53:23;16.29;68.11
64652;HTU21D;51062;45.120;37.660;2023-09-07T01:55:54;16.26;68.19
64652;HTU21D;51062;45.120;37.660;2023-09-07T01:58:22;16.24;68.20
64652;HTU21D;51062;45.120;37.660;2023-09-07T02:00:50;16.19;68.25
64652;HTU21D;51062;45.120;37.660;2023-09-07T02:03:16;16.15;68.29
64652;HTU21D;51062;45.120;37.660;2023-09-07T02:05:45;16.11;68.38
64652;HTU21D;51062;45.120;37.660;2023-09-07T02:08:11;16.11;68.42
64652;HTU21D;51062;45.120;37.660;2023-09-07T02:10:37;16.08;68.46
64652;HTU21D;51062;45.120;37.660;2023-09-07T02:13:04;16.04;68.47
64652;HTU21D;51062;45.120;37.660;2023-09-07T02:15:30;15.99;68.59
64652;HTU21D;51062;45.120;37.660;2023-09-07T02:17:56;15.96;68.65
64652;HTU21D;51062;45.120;37.660;2023-09-07T02:20:22;15.92;68.66
64652;HTU21D;51062;45.120;37.660;2023-09-07T02:22:48;15.90;68.68
64652;HTU21D;51062;45.120;37.660;2023-09-07T02:25:14;15.87;68.73
64652;HTU21D;51062;45.120;37.660;2023-09-07T02:27:40;15.86;68.75
64652;HTU21D;51062;45.120;37.660;2023-09-07T02:30:07;15.86;68.74
64652;HTU21D;51062;45.120;37.660;2023-09-07T02:32:33;15.86;68.74
64652;HTU21D;51062;45.120;37.660;2023-09-07T02:34:59;15.86;68.75
64652;HTU21D;51062;45.120;37.660;2023-09-07T02:37:25;15.85;68.78
64652;HTU21D;51062;45.120;37.660;2023-09-07T02:39:51;15.84;68.79
64652;HTU21D;51062;45.120;37.660;2023-09-07T02:42:17;15.84;68.78
64652;HTU21D;51062;45.120;37.660;2023-09-07T02:44:43;15.84;68.78
64652;HTU21D;51062;45.120;37.660;2023-09-07T02:47:09;15.82;68.78
64652;HTU21D;51062;45.120;37.660;2023-09-07T02:49:36;15.80;68.83
64652;HTU21D;51062;45.120;37.660;2023-09-07T02:52:02;15.76;68.91
64652;HTU21D;51062;45.120;37.660;2023-09-07T02:54:29;15.73;69.00
64652;HTU21D;51062;45.120;37.660;2023-09-07T02:56:55;15.73;69.03
64652;HTU21D;51062;45.120;37.660;2023-09-07T02:59:21;15.74;69.04
64652;HTU21D;51062;45.120;37.660;2023-09-07T03:01:47;15.74;69.04
64652;HTU21D;51062;45.120;37.660;2023-09-07T03:04:13;15.73;69.06
64652;HTU21D;51062;45.120;37.660;2023-09-07T03:06:40;15.75;69.07
64652;HTU21D;51062;45.120;37.660;2023-09-07T03:09:06;15.74;69.12
64652;HTU21D;51062;45.120;37.660;2023-09-07T03:11:37;15.77;69.17
64652;HTU21D;51062;45.120;37.660;2023-09-07T03:14:03;15.85;69.13
64652;HTU21D;51062;45.120;37.660;2023-09-07T03:16:30;15.92;69.16
64652;HTU21D;51062;45.120;37.660;2023-09-07T03:18:57;16.07;69.24
64652;HTU21D;51062;45.120;37.660;2023-09-07T03:21:23;16.37;69.14
64652;HTU21D;51062;45.120;37.660;2023-09-07T03:23:57;16.79;68.88
64652;HTU21D;51062;45.120;37.660;2023-09-07T03:26:23;17.20;68.55
64652;HTU21D;51062;45.120;37.660;2023-09-07T03:28:50;17.63;68.16
64652;HTU21D;51062;45.120;37.660;2023-09-07T03:31:17;18.06;67.91
64652;HTU21D;51062;45.120;37.660;2023-09-07T03:33:44;18.52;67.73
64652;HTU21D;51062;45.120;37.660;2023-09-07T03:36:10;18.97;67.55
64652;HTU21D;51062;45.120;37.660;2023-09-07T03:38:39;19.40;67.31
64652;HTU21D;51062;45.120;37.660;2023-09-07T03:41:06;19.77;67.21
64652;HTU21D;51062;45.120;37.660;2023-09-07T03:43:32;20.20;66.98
64652;HTU21D;51062;45.120;37.660;2023-09-07T03:45:58;20.65;66.66
64652;HTU21D;51062;45.120;37.660;2023-09-07T03:48:24;21.06;66.34
64652;HTU21D;51062;45.120;37.660;2023-09-07T03:50:50;21.46;65.98
64652;HTU21D;51062;45.120;37.660;2023-09-07T03:53:16;21.80;65.72
64652;HTU21D;51062;45.120;37.660;2023-09-07T03:55:44;22.20;65.37
64652;HTU21D;51062;45.120;37.660;2023-09-07T03:58:12;22.55;65.08
64652;HTU21D;51062;45.120;37.660;2023-09-07T04:00:40;22.87;64.70
64652;HTU21D;51062;45.120;37.660;2023-09-07T04:03:09;23.21;64.24
64652;HTU21D;51062;45.120;37.660;2023-09-07T04:05:39;23.60;63.77
64652;HTU21D;51062;45.120;37.660;2023-09-07T04:08:06;23.94;63.34
64652;HTU21D;51062;45.120;37.660;2023-09-07T04:10:35;24.34;62.79
64652;HTU21D;51062;45.120;37.660;2023-09-07T04:13:02;24.74;62.18
64652;HTU21D;51062;45.120;37.660;2023-09-07T04:15:29;25.08;61.83
64652;HTU21D;51062;45.120;37.660;2023-09-07T04:17:57;25.43;61.44
64652;HTU21D;51062;45.120;37.660;2023-09-07T04:20:23;25.87;60.79
64652;HTU21D;51062;45.120;37.660;2023-09-07T04:22:52;26.22;60.21
64652;HTU21D;51062;45.120;37.660;2023-09-07T04:25:18;26.56;59.73
64652;HTU21D;51062;45.120;37.660;2023-09-07T04:27:44;26.96;59.10
64652;HTU21D;51062;45.120;37.660;2023-09-07T04:30:10;27.27;58.54
64652;HTU21D;51062;45.120;37.660;2023-09-07T04:32:37;27.60;58.03
64652;HTU21D;51062;45.120;37.660;2023-09-07T04:35:03;27.95;57.33
64652;HTU21D;51062;45.120;37.660;2023-09-07T04:37:30;28.29;56.61
64652;HTU21D;51062;45.120;37.660;2023-09-07T04:39:56;28.53;56.07
64652;HTU21D;51062;45.120;37.660;2023-09-07T04:42:23;28.80;55.40
64652;HTU21D;51062;45.120;37.660;2023-09-07T04:44:49;29.15;54.49
64652;HTU21D;51062;45.120;37.660;2023-09-07T04:47:16;29.33;54.06
64652;HTU21D;51062;45.120;37.660;2023-09-07T04:49:48;29.37;53.67
64652;HTU21D;51062;45.120;37.660;2023-09-07T04:52:16;29.35;53.56
64652;HTU21D;51062;45.120;37.660;2023-09-07T04:54:44;29.42;53.31
64652;HTU21D;51062;45.120;37.660;2023-09-07T04:57:11;29.56;52.91
64652;HTU21D;51062;45.120;37.660;2023-09-07T04:59:37;29.75;52.44
64652;HTU21D;51062;45.120;37.660;2023-09-07T05:02:03;30.04;51.70
64652;HTU21D;51062;45.120;37.660;2023-09-07T05:04:30;30.27;51.17
64652;HTU21D;51062;45.120;37.660;2023-09-07T05:06:57;30.44;50.63
64652;HTU21D;51062;45.120;37.660;2023-09-07T05:09:23;30.54;50.37
64652;HTU21D;51062;45.120;37.660;2023-09-07T05:11:51;30.64;49.78
64652;HTU21D;51062;45.120;37.660;2023-09-07T05:14:20;30.71;49.61
64652;HTU21D;51062;45.120;37.660;2023-09-07T05:16:46;30.91;49.08
64652;HTU21D;51062;45.120;37.660;2023-09-07T05:19:14;31.05;48.75
64652;HTU21D;51062;45.120;37.660;2023-09-07T05:21:41;31.26;48.50
64652;HTU21D;51062;45.120;37.660;2023-09-07T05:24:07;31.39;47.86
64652;HTU21D;51062;45.120;37.660;2023-09-07T05:26:33;31.44;47.59
64652;HTU21D;51062;45.120;37.660;2023-09-07T05:28:59;31.64;47.17
64652;HTU21D;51062;45.120;37.660;2023-09-07T05:31:25;31.83;46.72
64652;HTU21D;51062;45.120;37.660;2023-09-07T05:33:52;31.96;46.35
64652;HTU21D;51062;45.120;37.660;2023-09-07T05:36:18;32.01;46.22
64652;HTU21D;51062;45.120;37.660;2023-09-07T05:38:44;32.19;45.61
64652;HTU21D;51062;45.120;37.660;2023-09-07T05:41:11;32.31;45.40
64652;HTU21D;51062;45.120;37.660;2023-09-07T05:43:37;32.14;45.06
64652;HTU21D;51062;45.120;37.660;2023-09-07T05:46:03;31.95;45.40
64652;HTU21D;51062;45.120;37.660;2023-09-07T05:48:30;32.09;45.19
64652;HTU21D;51062;45.120;37.660;2023-09-07T05:50:56;32.39;44.53
64652;HTU21D;51062;45.120;37.660;2023-09-07T05:53:22;32.68;43.71
64652;HTU21D;51062;45.120;37.660;2023-09-07T05:55:50;32.79;43.52
64652;HTU21D;51062;45.120;37.660;2023-09-07T05:58:17;32.98;43.32
64652;HTU21D;51062;45.120;37.660;2023-09-07T06:00:44;33.22;42.77
64652;HTU21D;51062;45.120;37.660;2023-09-07T06:03:10;33.43;42.22
64652;HTU21D;51062;45.120;37.660;2023-09-07T06:05:37;33.40;42.13
64652;HTU21D;51062;45.120;37.660;2023-09-07T06:08:06;33.40;41.94
64652;HTU21D;51062;45.120;37.660;2023-09-07T06:10:34;33.43;41.72
64652;HTU21D;51062;45.120;37.660;2023-09-07T06:13:00;33.43;41.71
64652;HTU21D;51062;45.120;37.660;2023-09-07T06:15:26;33.59;41.33
64652;HTU21D;51062;45.120;37.660;2023-09-07T06:17:53;33.71;41.10
64652;HTU21D;51062;45.120;37.660;2023-09-07T06:20:20;33.74;40.91
64652;HTU21D;51062;45.120;37.660;2023-09-07T06:22:47;33.71;40.74
64652;HTU21D;51062;45.120;37.660;2023-09-07T06:25:13;33.73;40.71
64652;HTU21D;51062;45.120;37.660;2023-09-07T06:27:40;33.77;40.68
64652;HTU21D;51062;45.120;37.660;2023-09-07T06:30:07;33.92;40.52
64652;HTU21D;51062;45.120;37.660;2023-09-07T06:32:35;34.12;40.08
64652;HTU21D;51062;45.120;37.660;2023-09-07T06:35:02;34.21;39.81
64652;HTU21D;51062;45.120;37.660;2023-09-07T06:37:29;34.26;39.68
64652;HTU21D;51062;45.120;37.660;2023-09-07T06:39:55;34.44;39.12
64652;HTU21D;51062;45.120;37.660;2023-09-07T06:42:21;34.60;38.55
64652;HTU21D;51062;45.120;37.660;2023-09-07T06:44:54;34.62;38.29
64652;HTU21D;51062;45.120;37.660;2023-09-07T06:47:21;34.44;38.41
64652;HTU21D;51062;45.120;37.660;2023-09-07T06:49:47;34.30;38.42
64652;HTU21D;51062;45.120;37.660;2023-09-07T06:52:14;34.09;38.62
64652;HTU21D;51062;45.120;37.660;2023-09-07T06:54:41;34.14;38.41
64652;HTU21D;51062;45.120;37.660;2023-09-07T06:57:08;34.23;38.19
64652;HTU21D;51062;45.120;37.660;2023-09-07T06:59:36;34.33;38.01
64652;HTU21D;51062;45.120;37.660;2023-09-07T07:02:03;34.34;37.81
64652;HTU21D;51062;45.120;37.660;2023-09-07T07:04:32;34.45;37.84
64652;HTU21D;51062;45.120;37.660;2023-09-07T07:06:58;34.60;37.51
64652;HTU21D;51062;45.120;37.660;2023-09-07T07:09:24;34.69;37.30
64652;HTU21D;51062;45.120;37.660;2023-09-07T07:11:50;34.82;36.98
64652;HTU21D;51062;45.120;37.660;2023-09-07T07:14:16;34.88;36.77
64652;HTU21D;51062;45.120;37.660;2023-09-07T07:16:43;34.91;36.44
64652;HTU21D;51062;45.120;37.660;2023-09-07T07:19:09;34.77;36.50
64652;HTU21D;51062;45.120;37.660;2023-09-07T07:21:35;34.80;36.30
64652;HTU21D;51062;45.120;37.660;2023-09-07T07:24:03;34.84;36.18
64652;HTU21D;51062;45.120;37.660;2023-09-07T07:26:32;34.99;36.02
64652;HTU21D;51062;45.120;37.660;2023-09-07T07:28:58;34.96;35.85
64652;HTU21D;51062;45.120;37.660;2023-09-07T07:31:25;34.90;35.92
64652;HTU21D;51062;45.120;37.660;2023-09-07T07:33:52;34.97;35.82
64652;HTU21D;51062;45.120;37.660;2023-09-07T07:36:18;35.07;35.44
64652;HTU21D;51062;45.120;37.660;2023-09-07T07:38:44;35.11;35.27
64652;HTU21D;51062;45.120;37.660;2023-09-07T07:41:11;35.28;35.05
64652;HTU21D;51062;45.120;37.660;2023-09-07T07:43:37;35.33;34.73
64652;HTU21D;51062;45.120;37.660;2023-09-07T07:46:04;35.20;34.63
64652;HTU21D;51062;45.120;37.660;2023-09-07T07:48:32;35.15;34.43
64652;HTU21D;51062;45.120;37.660;2023-09-07T07:51:04;35.18;34.22
64652;HTU21D;51062;45.120;37.660;2023-09-07T07:53:31;35.08;33.97
64652;HTU21D;51062;45.120;37.660;2023-09-07T07:55:58;34.89;33.92
64652;HTU21D;51062;45.120;37.660;2023-09-07T07:58:25;34.71;34.05
64652;HTU21D;51062;45.120;37.660;2023-09-07T08:00:51;34.62;34.10
64652;HTU21D;51062;45.120;37.660;2023-09-07T08:03:23;34.51;33.92
64652;HTU21D;51062;45.120;37.660;2023-09-07T08:05:49;34.38;33.76
64652;HTU21D;51062;45.120;37.660;2023-09-07T08:08:16;34.16;33.54
64652;HTU21D;51062;45.120;37.660;2023-09-07T08:10:44;33.83;33.62
64652;HTU21D;51062;45.120;37.660;2023-09-07T08:13:12;33.38;33.93
64652;HTU21D;51062;45.120;37.660;2023-09-07T08:15:38;32.77;34.41
64652;HTU21D;51062;45.120;37.660;2023-09-07T08:18:06;32.12;35.02
64652;HTU21D;51062;45.120;37.660;2023-09-07T08:20:32;31.60;35.60
64652;HTU21D;51062;45.120;37.660;2023-09-07T08:22:59;31.10;36.08
64652;HTU21D;51062;45.120;37.660;2023-09-07T08:25:27;30.69;36.63
64652;HTU21D;51062;45.120;37.660;2023-09-07T08:27:54;30.44;36.78
64652;HTU21D;51062;45.120;37.660;2023-09-07T08:30:23;30.18;37.03
64652;HTU21D;51062;45.120;37.660;2023-09-07T08:32:50;29.98;37.29
64652;HTU21D;51062;45.120;37.660;2023-09-07T08:35:17;29.83;37.64
64652;HTU21D;51062;45.120;37.660;2023-09-07T08:37:43;29.77;37.69
64652;HTU21D;51062;45.120;37.660;2023-09-07T08:40:09;29.67;37.76
64652;HTU21D;51062;45.120;37.660;2023-09-07T08:42:38;29.62;37.88
64652;HTU21D;51062;45.120;37.660;2023-09-07T08:45:08;29.60;37.98
64652;HTU21D;51062;45.120;37.660;2023-09-07T08:47:36;29.59;37.95
64652;HTU21D;51062;45.120;37.660;2023-09-07T08:50:04;29.54;37.89
64652;HTU21D;51062;45.120;37.660;2023-09-07T08:52:33;29.53;38.01
64652;HTU21D;51062;45.120;37.660;2023-09-07T08:54:59;29.52;37.91
64652;HTU21D;51062;45.120;37.660;2023-09-07T08:57:27;29.48;37.79
64652;HTU21D;51062;45.120;37.660;2023-09-07T08:59:55;29.44;37.91
64652;HTU21D;51062;45.120;37.660;2023-09-07T09:02:21;29.43;37.95
64652;HTU21D;51062;45.120;37.660;2023-09-07T09:04:47;29.41;37.98
64652;HTU21D;51062;45.120;37.660;2023-09-07T09:07:14;29.44;38.00
64652;HTU21D;51062;45.120;37.660;2023-09-07T09:09:40;29.45;37.82
64652;HTU21D;51062;45.120;37.660;2023-09-07T09:12:10;29.39;37.60
64652;HTU21D;51062;45.120;37.660;2023-09-07T09:14:37;29.36;37.80
64652;HTU21D;51062;45.120;37.660;2023-09-07T09:17:03;29.39;37.85
64652;HTU21D;51062;45.120;37.660;2023-09-07T09:19:35;29.42;37.70
64652;HTU21D;51062;45.120;37.660;2023-09-07T09:22:02;29.39;37.72
64652;HTU21D;51062;45.120;37.660;2023-09-07T09:24:33;29.37;37.63
64652;HTU21D;51062;45.120;37.660;2023-09-07T09:27:03;29.37;37.74
64652;HTU21D;51062;45.120;37.660;2023-09-07T09:29:32;29.41;37.77
64652;HTU21D;51062;45.120;37.660;2023-09-07T09:32:03;29.44;37.85
64652;HTU21D;51062;45.120;37.660;2023-09-07T09:34:36;29.44;37.92
64652;HTU21D;51062;45.120;37.660;2023-09-07T09:37:03;29.44;38.12
64652;HTU21D;51062;45.120;37.660;2023-09-07T09:39:29;29.49;38.35
64652;HTU21D;51062;45.120;37.660;2023-09-07T09:41:56;29.54;38.40
64652;HTU21D;51062;45.120;37.660;2023-09-07T09:44:23;29.57;38.43
64652;HTU21D;51062;45.120;37.660;2023-09-07T09:46:53;29.57;38.44
64652;HTU21D;51062;45.120;37.660;2023-09-07T09:49:22;29.60;38.56
64652;HTU21D;51062;45.120;37.660;2023-09-07T09:51:49;29.64;38.63
64652;HTU21D;51062;45.120;37.660;2023-09-07T09:54:17;29.65;38.59
64652;HTU21D;51062;45.120;37.660;2023-09-07T09:56:44;29.65;38.67
64652;HTU21D;51062;45.120;37.660;2023-09-07T09:59:12;29.64;38.69
64652;HTU21D;51062;45.120;37.660;2023-09-07T10:01:44;29.65;38.73
64652;HTU21D;51062;45.120;37.660;2023-09-07T10:04:13;29.70;38.74
64652;HTU21D;51062;45.120;37.660;2023-09-07T10:06:50;29.70;38.71
64652;HTU21D;51062;45.120;37.660;2023-09-07T10:09:19;29.67;38.60
64652;HTU21D;51062;45.120;37.660;2023-09-07T10:11:51;29.64;38.65
64652;HTU21D;51062;45.120;37.660;2023-09-07T10:14:18;29.56;38.66
64652;HTU21D;51062;45.120;37.660;2023-09-07T10:16:49;29.50;38.79
64652;HTU21D;51062;45.120;37.660;2023-09-07T10:19:23;29.51;38.88
64652;HTU21D;51062;45.120;37.660;2023-09-07T10:21:52;29.52;38.93
64652;HTU21D;51062;45.120;37.660;2023-09-07T10:24:34;29.52;38.98
64652;HTU21D;51062;45.120;37.660;2023-09-07T10:27:06;29.54;38.98
64652;HTU21D;51062;45.120;37.660;2023-09-07T10:29:46;29.56;38.94
64652;HTU21D;51062;45.120;37.660;2023-09-07T10:32:15;29.56;39.01
64652;HTU21D;51062;45.120;37.660;2023-09-07T10:34:42;29.54;38.98
64652;HTU21D;51062;45.120;37.660;2023-09-07T10:37:13;29.52;39.07
64652;HTU21D;51062;45.120;37.660;2023-09-07T10:39:41;29.53;38.97
64652;HTU21D;51062;45.120;37.660;2023-09-07T10:42:23;29.49;39.01
64652;HTU21D;51062;45.120;37.660;2023-09-07T10:44:50;29.47;39.10
64652;HTU21D;51062;45.120;37.660;2023-09-07T10:47:16;29.48;39.15
64652;HTU21D;51062;45.120;37.660;2023-09-07T10:49:42;29.48;39.11
64652;HTU21D;51062;45.120;37.660;2023-09-07T10:52:09;29.47;39.14
64652;HTU21D;51062;45.120;37.660;2023-09-07T10:54:35;29.47;39.06
64652;HTU21D;51062;45.120;37.660;2023-09-07T10:57:09;29.45;39.12
64652;HTU21D;51062;45.120;37.660;2023-09-07T10:59:36;29.43;39.13
64652;HTU21D;51062;45.120;37.660;2023-09-07T11:02:06;29.39;39.23
64652;HTU21D;51062;45.120;37.660;2023-09-07T11:04:32;29.39;39.23
64652;HTU21D;51062;45.120;37.660;2023-09-07T11:06:59;29.37;39.30
64652;HTU21D;51062;45.120;37.660;2023-09-07T11:09:26;29.37;39.33
64652;HTU21D;51062;45.120;37.660;2023-09-07T11:11:52;29.35;39.35
64652;HTU21D;51062;45.120;37.660;2023-09-07T11:14:21;29.30;39.45
64652;HTU21D;51062;45.120;37.660;2023-09-07T11:16:47;29.29;39.50
64652;HTU21D;51062;45.120;37.660;2023-09-07T11:19:14;29.22;39.46
64652;HTU21D;51062;45.120;37.660;2023-09-07T11:21:44;29.16;39.39
64652;HTU21D;51062;45.120;37.660;2023-09-07T11:24:10;29.07;39.58
64652;HTU21D;51062;45.120;37.660;2023-09-07T11:26:43;29.05;39.60
64652;HTU21D;51062;45.120;37.660;2023-09-07T11:29:17;29.01;39.67
64652;HTU21D;51062;45.120;37.660;2023-09-07T11:31:44;28.98;39.71
64652;HTU21D;51062;45.120;37.660;2023-09-07T11:34:14;28.93;39.75
64652;HTU21D;51062;45.120;37.660;2023-09-07T11:36:41;28.90;39.89
64652;HTU21D;51062;45.120;37.660;2023-09-07T11:39:08;28.89;40.06
64652;HTU21D;51062;45.120;37.660;2023-09-07T11:41:41;28.83;40.19
64652;HTU21D;51062;45.120;37.660;2023-09-07T11:44:08;28.74;40.44
64652;HTU21D;51062;45.120;37.660;2023-09-07T11:46:34;28.64;40.65
64652;HTU21D;51062;45.120;37.660;2023-09-07T11:49:01;28.56;40.85
64652;HTU21D;51062;45.120;37.660;2023-09-07T11:51:27;28.55;41.00
64652;HTU21D;51062;45.120;37.660;2023-09-07T11:53:53;28.55;41.11
64652;HTU21D;51062;45.120;37.660;2023-09-07T11:56:19;28.49;41.24
64652;HTU21D;51062;45.120;37.660;2023-09-07T11:58:45;28.45;41.41
64652;HTU21D;51062;45.120;37.660;2023-09-07T12:01:12;28.39;41.51
64652;HTU21D;51062;45.120;37.660;2023-09-07T12:03:40;28.28;41.63
64652;HTU21D;51062;45.120;37.660;2023-09-07T12:06:06;28.24;41.71
64652;HTU21D;51062;45.120;37.660;2023-09-07T12:08:32;28.18;41.77
64652;HTU21D;51062;45.120;37.660;2023-09-07T12:10:58;28.11;41.85
64652;HTU21D;51062;45.120;37.660;2023-09-07T12:13:24;28.03;41.87
64652;HTU21D;51062;45.120;37.660;2023-09-07T12:15:52;27.96;41.93
64652;HTU21D;51062;45.120;37.660;2023-09-07T12:18:18;27.90;42.04
64652;HTU21D;51062;45.120;37.660;2023-09-07T12:20:44;27.87;42.16
64652;HTU21D;51062;45.120;37.660;2023-09-07T12:23:12;27.84;42.11
64652;HTU21D;51062;45.120;37.660;2023-09-07T12:25:39;27.81;42.07
64652;HTU21D;51062;45.120;37.660;2023-09-07T12:28:05;27.73;42.19
64652;HTU21D;51062;45.120;37.660;2023-09-07T12:30:31;27.70;42.30
64652;HTU21D;51062;45.120;37.660;2023-09-07T12:32:57;27.67;42.45
64652;HTU21D;51062;45.120;37.660;2023-09-07T12:35:23;27.60;42.67
64652;HTU21D;51062;45.120;37.660;2023-09-07T12:37:49;27.55;42.82
64652;HTU21D;51062;45.120;37.660;2023-09-07T12:40:15;27.55;42.98
64652;HTU21D;51062;45.120;37.660;2023-09-07T12:42:43;27.54;43.01
64652;HTU21D;51062;45.120;37.660;2023-09-07T12:45:10;27.56;42.93
64652;HTU21D;51062;45.120;37.660;2023-09-07T12:47:37;27.52;42.90
64652;HTU21D;51062;45.120;37.660;2023-09-07T12:50:03;27.49;42.87
64652;HTU21D;51062;45.120;37.660;2023-09-07T12:52:31;27.45;42.80
64652;HTU21D;51062;45.120;37.660;2023-09-07T12:54:57;27.37;42.74
64652;HTU21D;51062;45.120;37.660;2023-09-07T12:57:23;27.30;42.74
64652;HTU21D;51062;45.120;37.660;2023-09-07T12:59:49;27.22;42.81
64652;HTU21D;51062;45.120;37.660;2023-09-07T13:02:15;27.21;42.81
64652;HTU21D;51062;45.120;37.660;2023-09-07T13:04:41;27.17;42.79
64652;HTU21D;51062;45.120;37.660;2023-09-07T13:07:07;27.14;42.80
64652;HTU21D;51062;45.120;37.660;2023-09-07T13:09:34;27.11;42.84
64652;HTU21D;51062;45.120;37.660;2023-09-07T13:12:01;27.07;42.91
64652;HTU21D;51062;45.120;37.660;2023-09-07T13:14:27;27.00;42.98
64652;HTU21D;51062;45.120;37.660;2023-09-07T13:16:53;26.96;43.05
64652;HTU21D;51062;45.120;37.660;2023-09-07T13:19:20;26.93;43.19
64652;HTU21D;51062;45.120;37.660;2023-09-07T13:21:46;26.89;43.31
64652;HTU21D;51062;45.120;37.660;2023-09-07T13:24:12;26.90;43.36
64652;HTU21D;51062;45.120;37.660;2023-09-07T13:26:39;26.89;43.42
64652;HTU21D;51062;45.120;37.660;2023-09-07T13:29:06;26.86;43.53
64652;HTU21D;51062;45.120;37.660;2023-09-07T13:31:32;26.83;43.71
64652;HTU21D;51062;45.120;37.660;2023-09-07T13:33:59;26.81;43.90
64652;HTU21D;51062;45.120;37.660;2023-09-07T13:36:24;26.79;44.03
64652;HTU21D;51062;45.120;37.660;2023-09-07T13:38:51;26.73;44.06
64652;HTU21D;51062;45.120;37.660;2023-09-07T13:41:17;26.69;44.09
64652;HTU21D;51062;45.120;37.660;2023-09-07T13:43:44;26.66;44.15
64652;HTU21D;51062;45.120;37.660;2023-09-07T13:46:10;26.62;44.24
64652;HTU21D;51062;45.120;37.660;2023-09-07T13:48:37;26.61;44.32
64652;HTU21D;51062;45.120;37.660;2023-09-07T13:51:03;26.54;44.42
64652;HTU21D;51062;45.120;37.660;2023-09-07T13:53:29;26.50;44.55
64652;HTU21D;51062;45.120;37.660;2023-09-07T13:55:55;26.46;44.70
64652;HTU21D;51062;45.120;37.660;2023-09-07T13:58:21;26.42;44.81
64652;HTU21D;51062;45.120;37.660;2023-09-07T14:00:47;26.40;44.89
64652;HTU21D;51062;45.120;37.660;2023-09-07T14:03:13;26.37;44.96
64652;HTU21D;51062;45.120;37.660;2023-09-07T14:05:39;26.36;45.03
64652;HTU21D;51062;45.120;37.660;2023-09-07T14:08:05;26.32;45.09
64652;HTU21D;51062;45.120;37.660;2023-09-07T14:10:32;26.30;45.12
64652;HTU21D;51062;45.120;37.660;2023-09-07T14:12:58;26.26;45.19
64652;HTU21D;51062;45.120;37.660;2023-09-07T14:15:24;26.23;45.29
64652;HTU21D;51062;45.120;37.660;2023-09-07T14:17:50;26.20;45.35
64652;HTU21D;51062;45.120;37.660;2023-09-07T14:20:16;26.16;45.35
64652;HTU21D;51062;45.120;37.660;2023-09-07T14:22:43;26.12;45.36
64652;HTU21D;51062;45.120;37.660;2023-09-07T14:25:09;26.09;45.37
64652;HTU21D;51062;45.120;37.660;2023-09-07T14:27:35;26.06;45.37
64652;HTU21D;51062;45.120;37.660;2023-09-07T14:30:01;26.01;45.35
64652;HTU21D;51062;45.120;37.660;2023-09-07T14:32:28;25.96;45.35
64652;HTU21D;51062;45.120;37.660;2023-09-07T14:34:54;25.91;45.38
64652;HTU21D;51062;45.120;37.660;2023-09-07T14:37:20;25.87;45.39
64652;HTU21D;51062;45.120;37.660;2023-09-07T14:39:46;25.81;45.42
64652;HTU21D;51062;45.120;37.660;2023-09-07T14:42:15;25.77;45.42
64652;HTU21D;51062;45.120;37.660;2023-09-07T14:44:44;25.72;45.40
64652;HTU21D;51062;45.120;37.660;2023-09-07T14:47:10;25.65;45.38
64652;HTU21D;51062;45.120;37.660;2023-09-07T14:49:37;25.60;45.38
64652;HTU21D;51062;45.120;37.660;2023-09-07T14:52:03;25.52;45.41
64652;HTU21D;51062;45.120;37.660;2023-09-07T14:54:29;25.48;45.40
64652;HTU21D;51062;45.120;37.660;2023-09-07T14:56:55;25.43;45.39
64652;HTU21D;51062;45.120;37.660;2023-09-07T14:59:21;25.35;45.40
64652;HTU21D;51062;45.120;37.660;2023-09-07T15:01:47;25.29;45.41